Time;durP1;ratioP1;P1;durP2;ratioP2;P2;SDS_P1;SDS_P2;PMS_P1;PMS_P2;Temp;Humidity;BMP_temperature;BMP_pressure;BME280_temperature;BME280_humidity;BME280_pressure;Samples;Min_cycle;Max_cycle;Signal;HPM_P1;HPM_P2
2023/04/18 00:01:02;;;;;;;7.28;3.50;;;8.10;96.50;;;;;;5038088;28;20088;-76
2023/04/18 00:03:28;;;;;;;7.68;3.80;;;8.10;96.40;;;;;;5001936;28;20041;-76
2023/04/18 00:05:54;;;;;;;5.63;3.08;;;8.10;96.50;;;;;;5005651;28;20312;-76
2023/04/18 00:08:20;;;;;;;7.50;3.17;;;8.10;97.10;;;;;;5000383;28;21257;-76
2023/04/18 00:10:46;;;;;;;8.80;2.90;;;8.10;97.20;;;;;;5032923;28;20042;-75
2023/04/18 00:13:12;;;;;;;8.30;2.60;;;8.10;97.20;;;;;;5040820;28;20053;-75
2023/04/18 00:15:38;;;;;;;5.57;2.83;;;8.00;97.00;;;;;;5000929;28;20050;-75
2023/04/18 00:18:04;;;;;;;9.73;3.13;;;8.00;97.00;;;;;;5036731;28;20506;-76
2023/04/18 00:20:31;;;;;;;7.25;3.10;;;8.00;97.30;;;;;;5002899;28;20061;-75
2023/04/18 00:22:59;;;;;;;10.40;3.90;;;8.00;97.30;;;;;;5010249;28;20096;-75
2023/04/18 00:25:25;;;;;;;5.35;2.78;;;7.90;97.50;;;;;;5050150;28;20117;-76
2023/04/18 00:27:51;;;;;;;7.97;3.65;;;7.90;97.40;;;;;;5035095;28;20678;-76
2023/04/18 00:30:16;;;;;;;7.53;3.70;;;7.90;97.50;;;;;;4999187;28;20041;-75
2023/04/18 00:32:42;;;;;;;6.47;2.47;;;7.80;97.40;;;;;;5034054;28;20502;-75
2023/04/18 00:35:08;;;;;;;7.13;3.25;;;7.80;97.80;;;;;;5001539;28;20034;-75
2023/04/18 00:37:33;;;;;;;5.85;2.97;;;7.80;97.90;;;;;;5008924;28;20381;-75
2023/04/18 00:39:59;;;;;;;4.40;2.60;;;7.80;97.80;;;;;;5003018;28;20109;-76
2023/04/18 00:42:26;;;;;;;7.72;3.25;;;7.80;97.90;;;;;;5002464;28;20221;-75
2023/04/18 00:44:52;;;;;;;7.72;3.17;;;7.80;98.00;;;;;;5000966;28;20097;-76
2023/04/18 00:47:17;;;;;;;8.07;2.83;;;7.70;98.20;;;;;;5027836;28;20045;-75
2023/04/18 00:49:44;;;;;;;5.25;2.78;;;7.70;98.30;;;;;;5007898;28;20033;-75
2023/04/18 00:52:11;;;;;;;7.07;3.45;;;7.70;98.50;;;;;;5002636;28;20049;-75
2023/04/18 00:54:38;;;;;;;5.97;3.17;;;7.70;98.60;;;;;;5001538;28;20061;-75
2023/04/18 00:57:04;;;;;;;7.20;3.50;;;7.70;98.50;;;;;;5000992;28;20474;-75
2023/04/18 00:59:31;;;;;;;5.93;3.00;;;7.70;98.50;;;;;;4999018;28;20426;-75
2023/04/18 01:01:57;;;;;;;6.32;2.30;;;7.60;98.60;;;;;;5002630;28;20117;-75
2023/04/18 01:04:23;;;;;;;6.40;3.13;;;7.60;98.60;;;;;;5001103;28;20116;-75
2023/04/18 01:06:49;;;;;;;6.90;2.90;;;7.60;98.80;;;;;;5002861;28;20299;-75
2023/04/18 01:09:14;;;;;;;7.10;2.75;;;7.50;98.90;;;;;;5002602;28;20034;-75
2023/04/18 01:11:40;;;;;;;6.15;2.70;;;7.50;98.90;;;;;;5030779;28;20050;-75
2023/04/18 01:14:07;;;;;;;6.88;2.80;;;7.50;99.20;;;;;;4999676;28;20460;-75
2023/04/18 01:16:33;;;;;;;7.30;3.63;;;7.40;99.30;;;;;;5003048;28;20521;-75
2023/04/18 01:19:02;;;;;;;8.25;2.75;;;7.40;99.60;;;;;;4996736;28;20149;-75
2023/04/18 01:21:30;;;;;;;5.38;3.05;;;7.40;99.70;;;;;;5039343;28;20112;-75
2023/04/18 01:24:19;;;;;;;8.65;3.20;;;7.30;99.70;;;;;;4997728;28;20069;-75
2023/04/18 01:26:48;;;;;;;6.97;3.30;;;7.30;99.90;;;;;;5000034;28;20494;-75
2023/04/18 01:29:14;;;;;;;6.30;2.90;;;7.30;99.90;;;;;;5002589;28;20132;-76
2023/04/18 01:31:40;;;;;;;7.35;3.05;;;7.30;99.90;;;;;;5001221;28;20465;-75
2023/04/18 01:34:06;;;;;;;7.15;3.63;;;7.30;99.90;;;;;;5033626;28;20614;-76
2023/04/18 01:36:34;;;;;;;6.28;2.65;;;7.30;99.90;;;;;;5009396;28;20034;-76
2023/04/18 01:39:00;;;;;;;7.07;2.85;;;7.30;99.90;;;;;;5000925;28;20247;-76
2023/04/18 01:41:28;;;;;;;7.90;3.53;;;7.20;99.90;;;;;;5011404;28;20439;-76
2023/04/18 01:43:54;;;;;;;6.20;3.05;;;7.20;99.90;;;;;;5009909;28;20042;-76
2023/04/18 01:46:19;;;;;;;6.82;2.90;;;7.20;99.90;;;;;;5033917;28;20053;-75
2023/04/18 01:48:45;;;;;;;5.78;2.72;;;7.20;99.90;;;;;;5006821;28;20042;-76
2023/04/18 01:51:11;;;;;;;8.35;3.10;;;7.20;99.90;;;;;;4998864;28;20470;-76
2023/04/18 01:53:36;;;;;;;7.40;2.92;;;7.20;99.90;;;;;;5005406;28;20120;-75
2023/04/18 01:56:02;;;;;;;5.55;2.75;;;7.20;99.90;;;;;;5006972;28;20133;-76
2023/04/18 01:58:28;;;;;;;5.65;3.10;;;7.20;99.90;;;;;;5005374;28;20034;-75
2023/04/18 02:00:56;;;;;;;6.38;3.17;;;7.20;99.90;;;;;;5036710;28;20069;-75
2023/04/18 02:03:22;;;;;;;7.72;2.95;;;7.10;99.90;;;;;;5037671;28;20117;-76
2023/04/18 02:05:48;;;;;;;5.20;2.70;;;7.20;99.90;;;;;;4998595;28;20480;-75
2023/04/18 02:08:13;;;;;;;6.35;3.33;;;7.10;99.90;;;;;;5005408;28;20044;-76
2023/04/18 02:10:39;;;;;;;9.15;3.30;;;7.10;99.90;;;;;;5008146;28;20471;-76
2023/04/18 02:13:08;;;;;;;6.13;2.85;;;7.10;99.90;;;;;;5011679;28;20053;-75
2023/04/18 02:15:33;;;;;;;7.72;3.42;;;7.10;99.90;;;;;;5004387;28;20100;-76
2023/04/18 02:17:59;;;;;;;8.88;3.33;;;7.00;99.90;;;;;;5005420;28;20038;-76
2023/04/18 02:20:27;;;;;;;10.25;3.63;;;7.10;99.90;;;;;;5006820;28;20041;-76
2023/04/18 02:22:53;;;;;;;7.15;3.25;;;7.00;99.90;;;;;;5027405;28;20044;-76
2023/04/18 02:25:22;;;;;;;8.32;3.22;;;7.10;99.90;;;;;;5007645;28;20041;-76
2023/04/18 02:27:48;;;;;;;6.65;2.97;;;7.00;99.90;;;;;;5010090;28;20034;-76
2023/04/18 02:30:14;;;;;;;7.30;3.38;;;7.10;99.90;;;;;;5002823;28;20041;-76
2023/04/18 02:32:39;;;;;;;8.95;3.60;;;7.10;99.90;;;;;;5003881;28;20052;-76
2023/04/18 02:35:05;;;;;;;7.20;3.60;;;7.10;99.90;;;;;;5007233;28;20034;-76
2023/04/18 02:37:31;;;;;;;7.07;3.28;;;7.10;99.90;;;;;;5005822;28;20369;-76
2023/04/18 02:39:56;;;;;;;7.97;2.90;;;7.10;99.90;;;;;;5009971;28;20053;-76
2023/04/18 02:42:22;;;;;;;6.38;2.95;;;7.10;99.90;;;;;;5001530;28;20057;-76
2023/04/18 02:44:47;;;;;;;7.03;2.92;;;7.10;99.90;;;;;;5011388;28;20280;-76
2023/04/18 02:47:13;;;;;;;9.35;2.85;;;7.10;99.90;;;;;;5006664;28;20042;-76
2023/04/18 02:49:39;;;;;;;8.45;3.50;;;7.10;99.90;;;;;;5008443;28;20125;-76
2023/04/18 02:52:05;;;;;;;8.45;3.10;;;7.10;99.90;;;;;;5000679;28;20037;-76
2023/04/18 02:54:31;;;;;;;7.28;3.08;;;7.00;99.90;;;;;;5004206;28;20390;-76
2023/04/18 02:56:56;;;;;;;6.90;3.20;;;7.00;99.90;;;;;;5009560;28;20034;-76
2023/04/18 02:59:22;;;;;;;7.95;3.10;;;7.10;99.90;;;;;;5009424;28;20037;-76
2023/04/18 03:01:47;;;;;;;8.02;3.17;;;7.10;99.90;;;;;;5007107;28;20455;-75
2023/04/18 03:04:13;;;;;;;7.70;3.38;;;7.10;99.90;;;;;;5031931;28;20053;-76
2023/04/18 03:06:39;;;;;;;8.57;3.55;;;7.10;99.90;;;;;;5030556;28;20049;-76
2023/04/18 03:09:05;;;;;;;7.72;3.45;;;7.10;99.90;;;;;;5004453;28;20041;-76
2023/04/18 03:11:30;;;;;;;7.57;3.53;;;7.10;99.90;;;;;;5008192;28;20082;-75
2023/04/18 03:13:56;;;;;;;6.15;2.40;;;7.10;99.90;;;;;;5004046;28;20045;-76
2023/04/18 03:16:21;;;;;;;8.98;3.08;;;7.00;99.90;;;;;;5002503;28;20038;-76
2023/04/18 03:18:47;;;;;;;6.38;3.28;;;7.00;99.90;;;;;;5008521;28;20394;-75
2023/04/18 03:21:13;;;;;;;7.18;3.17;;;7.00;99.90;;;;;;5007863;28;20280;-76
2023/04/18 03:23:39;;;;;;;7.70;3.63;;;7.00;99.90;;;;;;5005497;28;20046;-75
2023/04/18 03:26:06;;;;;;;7.32;2.92;;;7.00;99.90;;;;;;4999360;28;20048;-76
2023/04/18 03:28:32;;;;;;;6.00;2.90;;;7.00;99.90;;;;;;5009087;28;20049;-75
2023/04/18 03:30:58;;;;;;;5.30;3.13;;;7.00;99.90;;;;;;5004462;28;20073;-75
2023/04/18 03:33:24;;;;;;;8.75;3.85;;;7.00;99.90;;;;;;4998250;28;20041;-75
2023/04/18 03:35:49;;;;;;;7.97;3.35;;;7.00;99.90;;;;;;4997237;28;20052;-75
2023/04/18 03:38:15;;;;;;;6.75;3.00;;;7.00;99.90;;;;;;5009847;28;20121;-75
2023/04/18 03:40:43;;;;;;;8.35;3.28;;;7.00;99.90;;;;;;5005300;28;20030;-75
2023/04/18 03:43:09;;;;;;;5.22;2.85;;;7.00;99.90;;;;;;5004337;28;20213;-76
2023/04/18 03:45:35;;;;;;;7.05;3.33;;;7.10;99.90;;;;;;4999626;28;20499;-75
2023/04/18 03:48:00;;;;;;;6.38;3.22;;;7.00;99.90;;;;;;5003233;28;20115;-75
2023/04/18 03:50:26;;;;;;;5.55;2.85;;;7.00;99.90;;;;;;4996754;28;20034;-75
2023/04/18 03:52:52;;;;;;;7.40;3.03;;;7.00;99.90;;;;;;5041993;28;20120;-75
2023/04/18 03:55:18;;;;;;;8.05;3.33;;;7.00;99.90;;;;;;5004399;28;20029;-75
2023/04/18 03:57:44;;;;;;;8.07;3.22;;;7.00;99.90;;;;;;5006452;28;20066;-75
2023/04/18 04:00:11;;;;;;;7.28;2.58;;;7.00;99.90;;;;;;5004189;28;20577;-75
2023/04/18 04:02:37;;;;;;;8.90;3.20;;;7.00;99.90;;;;;;5002309;28;20044;-76
2023/04/18 04:05:03;;;;;;;6.55;3.00;;;7.00;99.90;;;;;;5002175;28;20037;-76
2023/04/18 04:07:30;;;;;;;8.05;3.22;;;7.00;99.90;;;;;;5001486;28;20517;-75
2023/04/18 04:09:57;;;;;;;6.57;3.30;;;7.00;99.90;;;;;;5009341;28;20041;-75
2023/04/18 04:12:23;;;;;;;5.90;3.00;;;7.00;99.90;;;;;;5001208;28;20503;-76
2023/04/18 04:14:49;;;;;;;9.63;3.33;;;7.00;99.90;;;;;;5004348;28;20045;-75
2023/04/18 04:17:15;;;;;;;6.57;3.03;;;7.00;99.90;;;;;;4998244;28;20089;-75
2023/04/18 04:19:40;;;;;;;8.63;3.03;;;7.00;99.90;;;;;;5003242;28;20041;-75
2023/04/18 04:22:06;;;;;;;8.05;3.70;;;7.00;99.90;;;;;;5002635;28;20092;-75
2023/04/18 04:24:32;;;;;;;8.65;3.47;;;7.00;99.90;;;;;;5001614;28;20045;-76
2023/04/18 04:27:02;;;;;;;6.35;2.88;;;7.00;99.90;;;;;;5003952;28;20454;-76
2023/04/18 04:29:28;;;;;;;7.97;4.07;;;7.00;99.90;;;;;;4999794;28;20049;-76
2023/04/18 04:31:54;;;;;;;7.32;2.85;;;7.00;99.90;;;;;;5000921;28;20033;-75
2023/04/18 04:34:20;;;;;;;7.18;2.90;;;7.00;99.90;;;;;;4998091;28;20046;-76
2023/04/18 04:36:47;;;;;;;6.22;3.00;;;7.00;99.90;;;;;;5006553;28;20075;-76
2023/04/18 04:39:16;;;;;;;6.97;2.88;;;7.00;99.90;;;;;;5008231;28;20076;-75
2023/04/18 04:41:42;;;;;;;7.85;3.35;;;7.00;99.90;;;;;;5002170;28;20034;-75
2023/04/18 04:44:08;;;;;;;7.47;3.15;;;7.00;99.90;;;;;;5035766;28;20042;-75
2023/04/18 04:46:38;;;;;;;7.10;3.10;;;7.00;99.90;;;;;;5000707;28;20375;-75
2023/04/18 04:49:03;;;;;;;7.00;3.53;;;7.00;99.90;;;;;;5000445;28;20057;-76
2023/04/18 04:51:30;;;;;;;7.90;3.20;;;7.00;99.90;;;;;;5005556;28;20153;-75
2023/04/18 04:53:56;;;;;;;7.80;2.92;;;7.00;99.90;;;;;;5036443;28;20045;-75
2023/04/18 04:56:22;;;;;;;8.13;2.72;;;7.00;99.90;;;;;;5003867;28;20039;-76
2023/04/18 04:58:48;;;;;;;6.80;2.90;;;7.00;99.90;;;;;;5002531;28;20029;-75
2023/04/18 05:01:15;;;;;;;6.47;3.10;;;7.10;99.90;;;;;;5000575;28;20092;-76
2023/04/18 05:03:41;;;;;;;7.30;2.97;;;7.10;99.90;;;;;;5033260;28;20117;-76
2023/04/18 05:06:07;;;;;;;6.68;3.13;;;7.10;99.90;;;;;;5052029;28;20387;-75
2023/04/18 05:08:33;;;;;;;8.15;3.38;;;7.10;99.90;;;;;;5001661;28;20470;-75
2023/04/18 05:11:00;;;;;;;6.95;2.83;;;7.10;99.90;;;;;;5007461;28;20124;-75
2023/04/18 05:13:25;;;;;;;8.15;3.40;;;7.10;99.90;;;;;;5002195;28;20726;-75
2023/04/18 05:15:51;;;;;;;8.82;2.88;;;7.10;99.90;;;;;;5002133;28;20112;-75
2023/04/18 05:18:17;;;;;;;6.57;3.20;;;7.10;99.90;;;;;;5027878;28;20493;-75
2023/04/18 05:20:42;;;;;;;7.95;3.28;;;7.10;99.90;;;;;;5050708;28;20061;-75
2023/04/18 05:23:08;;;;;;;9.15;3.40;;;7.10;99.90;;;;;;4999143;28;20113;-75
2023/04/18 05:25:34;;;;;;;5.40;2.30;;;7.10;99.90;;;;;;5038985;28;20046;-76
2023/04/18 05:28:00;;;;;;;6.45;3.00;;;7.10;99.90;;;;;;5032899;28;20407;-75
2023/04/18 05:30:26;;;;;;;8.73;3.55;;;7.10;99.90;;;;;;4996720;28;20480;-76
2023/04/18 05:32:51;;;;;;;7.78;3.22;;;7.10;99.90;;;;;;5004179;28;20054;-76
2023/04/18 05:35:17;;;;;;;7.25;2.83;;;7.20;99.90;;;;;;5010073;28;20046;-76
2023/04/18 05:37:43;;;;;;;8.25;2.92;;;7.20;99.90;;;;;;5003490;28;20050;-76
2023/04/18 05:40:09;;;;;;;8.55;3.05;;;7.20;99.90;;;;;;5000831;28;20030;-76
2023/04/18 05:42:35;;;;;;;5.20;3.10;;;7.20;99.90;;;;;;5001191;28;20494;-76
2023/04/18 05:45:00;;;;;;;10.00;3.08;;;7.20;99.90;;;;;;5002272;28;20066;-76
2023/04/18 05:47:27;;;;;;;5.95;2.67;;;7.20;99.90;;;;;;5005510;28;20558;-76
2023/04/18 05:49:53;;;;;;;8.15;3.00;;;7.20;99.90;;;;;;5003108;28;20515;-76
2023/04/18 05:52:19;;;;;;;6.43;3.15;;;7.30;99.90;;;;;;5004014;28;20045;-76
2023/04/18 05:54:45;;;;;;;7.72;3.78;;;7.20;99.90;;;;;;5002050;28;20060;-76
2023/04/18 05:57:10;;;;;;;6.80;3.05;;;7.30;99.90;;;;;;5000281;28;20040;-76
2023/04/18 05:59:36;;;;;;;7.55;3.15;;;7.30;99.90;;;;;;5005508;28;20550;-76
2023/04/18 06:02:02;;;;;;;7.00;2.80;;;7.40;99.90;;;;;;5000871;28;20125;-75
2023/04/18 06:04:27;;;;;;;7.50;3.63;;;7.30;99.90;;;;;;4998189;28;20438;-76
2023/04/18 06:06:53;;;;;;;6.38;3.00;;;7.30;99.90;;;;;;5028338;28;20121;-76
2023/04/18 06:09:19;;;;;;;9.63;3.47;;;7.40;99.90;;;;;;5000431;28;20451;-75
2023/04/18 06:11:45;;;;;;;7.43;3.45;;;7.40;99.90;;;;;;4995532;28;20050;-75
2023/04/18 06:14:11;;;;;;;8.88;3.97;;;7.40;99.90;;;;;;4992812;28;20582;-76
2023/04/18 06:16:36;;;;;;;8.80;3.42;;;7.40;99.90;;;;;;5023491;28;20136;-75
2023/04/18 06:19:02;;;;;;;7.75;3.80;;;7.40;99.90;;;;;;5001971;28;20408;-76
2023/04/18 06:21:28;;;;;;;7.28;3.58;;;7.40;99.90;;;;;;5028305;28;20318;-76
2023/04/18 06:23:54;;;;;;;8.98;3.58;;;7.50;99.90;;;;;;5000491;28;20296;-76
2023/04/18 06:26:19;;;;;;;7.03;3.03;;;7.50;99.90;;;;;;5037697;28;20077;-75
2023/04/18 06:28:45;;;;;;;7.78;3.42;;;7.60;99.90;;;;;;5005373;28;20030;-76
2023/04/18 06:31:11;;;;;;;6.60;3.20;;;7.60;99.90;;;;;;5005857;28;20034;-76
2023/04/18 06:33:36;;;;;;;7.82;3.80;;;7.60;99.90;;;;;;5003543;28;20034;-76
2023/04/18 06:36:04;;;;;;;6.65;3.35;;;7.60;99.90;;;;;;5006077;28;20033;-76
2023/04/18 06:38:29;;;;;;;8.57;3.50;;;7.70;99.90;;;;;;5002404;28;20498;-76
2023/04/18 06:40:55;;;;;;;7.75;3.38;;;7.70;99.90;;;;;;5020979;28;20030;-76
2023/04/18 06:43:20;;;;;;;6.75;3.47;;;7.80;99.90;;;;;;5006695;28;20502;-76
2023/04/18 06:45:46;;;;;;;6.60;3.00;;;7.80;99.90;;;;;;5032828;28;20064;-76
2023/04/18 06:48:12;;;;;;;7.32;3.38;;;7.80;99.90;;;;;;5000688;28;20152;-76
2023/04/18 06:50:38;;;;;;;8.50;3.72;;;7.90;99.90;;;;;;5005172;28;20499;-76
2023/04/18 06:53:03;;;;;;;7.57;3.22;;;7.90;99.90;;;;;;4995307;28;20034;-76
2023/04/18 06:55:29;;;;;;;7.97;3.80;;;7.90;99.90;;;;;;5006925;28;20052;-76
2023/04/18 06:57:55;;;;;;;7.68;3.47;;;8.00;99.90;;;;;;5001630;28;20042;-76
2023/04/18 07:00:21;;;;;;;8.25;4.18;;;8.00;99.90;;;;;;5001152;28;20040;-75
2023/04/18 07:02:47;;;;;;;8.35;3.72;;;8.00;99.90;;;;;;4998934;28;20577;-76
2023/04/18 07:05:12;;;;;;;8.07;3.05;;;8.00;99.90;;;;;;5002673;28;20029;-77
2023/04/18 07:07:38;;;;;;;5.72;2.80;;;8.10;99.90;;;;;;4997309;28;20080;-76
2023/04/18 07:10:05;;;;;;;8.88;3.38;;;8.10;99.90;;;;;;5002579;28;20074;-76
2023/04/18 07:12:30;;;;;;;7.15;2.97;;;8.10;99.90;;;;;;5002947;28;20504;-76
2023/04/18 07:14:56;;;;;;;10.35;3.63;;;8.10;99.90;;;;;;4999284;28;20080;-75
2023/04/18 07:17:21;;;;;;;5.97;2.75;;;8.20;99.90;;;;;;5001868;28;20038;-76
2023/04/18 07:19:47;;;;;;;6.72;3.03;;;8.20;99.90;;;;;;5002852;28;20026;-76
2023/04/18 07:22:13;;;;;;;7.05;2.92;;;8.20;99.90;;;;;;5002688;28;20048;-76
2023/04/18 07:24:39;;;;;;;5.85;3.13;;;8.20;99.90;;;;;;5000952;28;20026;-76
2023/04/18 07:27:05;;;;;;;5.82;2.85;;;8.20;99.90;;;;;;5003163;28;20125;-76
2023/04/18 07:29:31;;;;;;;6.88;2.83;;;8.30;99.90;;;;;;5003391;28;20677;-76
2023/04/18 07:31:57;;;;;;;6.15;3.13;;;8.40;99.90;;;;;;5009076;28;20046;-76
2023/04/18 07:34:25;;;;;;;7.65;3.33;;;8.40;99.90;;;;;;4998219;28;20121;-75
2023/04/18 07:36:51;;;;;;;6.88;3.53;;;8.50;99.90;;;;;;5004506;28;20038;-76
2023/04/18 07:39:16;;;;;;;7.22;2.65;;;8.60;99.90;;;;;;4999471;28;20095;-75
2023/04/18 07:41:42;;;;;;;6.70;2.95;;;8.70;99.90;;;;;;5028527;28;20049;-76
2023/04/18 07:44:07;;;;;;;5.72;2.42;;;8.70;99.90;;;;;;5012828;28;20491;-76
2023/04/18 07:46:33;;;;;;;4.93;2.83;;;8.70;99.90;;;;;;5002663;28;20100;-76
2023/04/18 07:49:01;;;;;;;4.85;2.88;;;8.80;99.90;;;;;;4999864;28;20133;-76
2023/04/18 07:51:30;;;;;;;5.43;2.65;;;8.80;99.90;;;;;;5002094;28;20392;-76
2023/04/18 07:53:57;;;;;;;5.40;2.83;;;8.70;99.90;;;;;;4999115;28;20099;-77
2023/04/18 07:56:23;;;;;;;6.80;3.60;;;8.80;99.90;;;;;;4998117;28;20188;-76
2023/04/18 07:58:48;;;;;;;5.40;2.90;;;8.80;99.90;;;;;;5004140;28;20492;-76
2023/04/18 08:01:17;;;;;;;7.13;3.33;;;8.80;99.90;;;;;;5000239;28;20037;-76
2023/04/18 08:03:43;;;;;;;11.23;3.15;;;8.90;99.90;;;;;;5033859;28;20038;-73
2023/04/18 08:06:08;;;;;;;6.07;3.10;;;8.90;99.90;;;;;;4995901;28;20462;-75
2023/04/18 08:08:34;;;;;;;6.57;2.95;;;8.90;99.90;;;;;;4998287;28;20050;-76
2023/04/18 08:11:00;;;;;;;5.72;3.20;;;8.90;99.90;;;;;;4999554;28;20057;-76
2023/04/18 08:13:26;;;;;;;8.02;3.55;;;8.90;99.90;;;;;;5000833;28;20068;-79
2023/04/18 08:15:52;;;;;;;6.90;3.65;;;9.00;99.90;;;;;;4998042;28;20437;-76
2023/04/18 08:18:18;;;;;;;8.23;3.30;;;9.00;99.90;;;;;;5031633;28;20038;-76
2023/04/18 08:20:44;;;;;;;6.80;3.25;;;9.10;99.90;;;;;;5033363;28;20044;-75
2023/04/18 08:23:10;;;;;;;6.78;2.88;;;9.10;99.90;;;;;;5001070;28;20042;-74
2023/04/18 08:25:36;;;;;;;7.18;3.10;;;9.10;99.90;;;;;;5010616;28;20045;-75
2023/04/18 08:28:01;;;;;;;6.97;2.85;;;9.20;99.90;;;;;;5000882;28;20120;-76
2023/04/18 08:30:27;;;;;;;10.00;3.33;;;9.20;99.90;;;;;;5000993;28;20483;-75
2023/04/18 08:32:52;;;;;;;6.85;3.13;;;9.20;99.90;;;;;;4998848;28;20033;-77
2023/04/18 08:35:18;;;;;;;8.20;3.53;;;9.30;99.90;;;;;;4999438;28;20139;-76
2023/04/18 08:37:44;;;;;;;7.03;2.95;;;9.30;99.90;;;;;;4995168;28;20100;-76
2023/04/18 08:40:09;;;;;;;6.93;3.53;;;9.40;99.90;;;;;;4993704;28;20080;-76
2023/04/18 08:42:38;;;;;;;5.90;3.03;;;9.50;99.90;;;;;;5002161;28;20030;-76
2023/04/18 08:45:05;;;;;;;6.13;2.60;;;9.50;99.90;;;;;;5015428;28;20077;-76
2023/04/18 08:47:33;;;;;;;5.57;2.63;;;9.50;99.90;;;;;;5011462;28;20042;-77
2023/04/18 08:50:00;;;;;;;7.70;3.00;;;9.60;99.90;;;;;;5004928;28;20037;-77
2023/04/18 08:52:28;;;;;;;10.88;3.00;;;9.60;99.90;;;;;;4992802;28;20143;-77
2023/04/18 08:54:56;;;;;;;5.63;2.60;;;9.60;99.90;;;;;;4996021;28;20038;-85
2023/04/18 08:57:29;;;;;;;6.65;2.88;;;9.60;99.90;;;;;;4990293;28;20045;-76
2023/04/18 08:59:56;;;;;;;6.10;2.78;;;9.60;99.90;;;;;;4995803;28;20082;-75
2023/04/18 09:02:37;;;;;;;6.63;2.92;;;9.60;99.90;;;;;;5002417;28;20083;-84
2023/04/18 09:05:14;;;;;;;10.40;3.47;;;9.70;99.90;;;;;;5025150;28;20038;-84
2023/04/18 09:07:41;;;;;;;9.05;3.08;;;9.70;99.90;;;;;;4995548;28;20435;-84
2023/04/18 09:10:07;;;;;;;5.55;2.80;;;9.80;99.90;;;;;;4999614;28;20480;-85
2023/04/18 09:12:41;;;;;;;10.85;3.42;;;9.80;99.90;;;;;;5000987;28;20530;-84
2023/04/18 09:15:10;;;;;;;7.15;2.65;;;9.80;99.90;;;;;;5004645;28;20780;-84
2023/04/18 09:17:41;;;;;;;6.85;3.55;;;9.80;99.90;;;;;;5029879;28;20496;-84
2023/04/18 09:20:09;;;;;;;5.43;2.90;;;9.90;99.90;;;;;;4997043;28;20051;-84
2023/04/18 09:23:09;;;;;;;4.43;2.40;;;9.90;99.90;;;;;;5036247;28;20067;-85
2023/04/18 09:25:41;;;;;;;6.43;3.10;;;10.10;99.90;;;;;;5032746;28;20041;-84
2023/04/18 09:28:26;;;;;;;5.43;2.80;;;10.20;99.90;;;;;;5029577;28;20080;-82
2023/04/18 09:30:53;;;;;;;7.00;2.83;;;10.20;99.90;;;;;;4991674;28;20048;-81
2023/04/18 09:33:32;;;;;;;5.25;2.95;;;10.20;99.90;;;;;;5000769;28;20085;-83
2023/04/18 09:36:20;;;;;;;6.05;3.00;;;10.20;99.90;;;;;;5030193;28;20037;-84
2023/04/18 09:38:48;;;;;;;6.78;3.08;;;10.20;99.90;;;;;;5027043;28;20091;-83
2023/04/18 09:41:17;;;;;;;6.32;2.88;;;10.20;99.90;;;;;;4998481;28;20037;-83
2023/04/18 09:43:44;;;;;;;6.15;2.95;;;10.20;99.90;;;;;;5022967;28;20152;-83
2023/04/18 09:46:11;;;;;;;6.28;2.83;;;10.30;99.90;;;;;;4999032;28;20054;-83
2023/04/18 09:48:37;;;;;;;8.38;2.38;;;10.30;99.90;;;;;;5000629;28;20073;-83
2023/04/18 09:51:08;;;;;;;6.90;3.03;;;10.30;99.90;;;;;;4999888;28;20491;-83
2023/04/18 09:53:38;;;;;;;6.32;2.95;;;10.30;99.90;;;;;;4994217;28;20053;-83
2023/04/18 09:56:05;;;;;;;5.43;2.58;;;10.40;99.90;;;;;;5047408;28;20128;-82
2023/04/18 09:58:33;;;;;;;5.38;2.80;;;10.40;99.90;;;;;;4999137;28;20053;-82
2023/04/18 10:00:59;;;;;;;7.90;3.10;;;10.50;99.90;;;;;;4994446;28;20217;-83
2023/04/18 10:03:33;;;;;;;6.32;2.50;;;10.60;99.90;;;;;;5007633;28;20117;-82
2023/04/18 10:05:59;;;;;;;5.15;2.67;;;10.60;99.90;;;;;;5032166;28;20041;-83
2023/04/18 10:08:26;;;;;;;6.93;3.00;;;10.70;99.90;;;;;;5000273;28;20484;-82
2023/04/18 10:10:54;;;;;;;7.03;3.10;;;10.70;99.90;;;;;;5002632;28;20046;-82
2023/04/18 10:13:20;;;;;;;6.75;3.45;;;10.80;99.90;;;;;;4998287;28;20585;-81
2023/04/18 10:15:47;;;;;;;5.15;2.60;;;10.90;99.90;;;;;;5001470;28;20046;-80
2023/04/18 10:18:17;;;;;;;5.15;2.88;;;10.90;99.90;;;;;;5028197;28;20412;-81
2023/04/18 10:20:45;;;;;;;6.57;3.00;;;11.00;99.10;;;;;;5015248;28;20196;-81
2023/04/18 10:23:30;;;;;;;5.70;3.05;;;11.00;99.40;;;;;;5011209;28;20038;-81
2023/04/18 10:25:56;;;;;;;9.10;3.40;;;11.00;99.10;;;;;;5054843;28;20134;-81
2023/04/18 10:28:23;;;;;;;5.28;2.42;;;11.10;99.50;;;;;;5008244;28;20120;-82
2023/04/18 10:30:51;;;;;;;5.63;2.30;;;11.10;98.30;;;;;;5018413;28;20452;-81
2023/04/18 10:33:32;;;;;;;6.32;3.00;;;11.20;98.00;;;;;;5037951;28;20045;-81
2023/04/18 10:36:02;;;;;;;5.45;2.78;;;11.10;98.40;;;;;;5028740;28;20049;-81
2023/04/18 10:38:28;;;;;;;4.70;2.80;;;11.10;98.80;;;;;;5035444;28;20038;-81
2023/04/18 10:41:21;;;;;;;5.30;2.38;;;11.10;99.00;;;;;;5004675;28;20325;-81
2023/04/18 10:44:05;;;;;;;6.10;2.70;;;11.10;98.10;;;;;;5004640;28;20038;-81
2023/04/18 10:46:35;;;;;;;11.18;2.85;;;11.10;97.20;;;;;;5038569;28;20435;-81
2023/04/18 10:49:18;;;;;;;6.43;2.40;;;11.10;98.50;;;;;;5001042;28;20499;-81
2023/04/18 10:51:48;;;;;;;4.45;2.50;;;11.20;98.30;;;;;;5011362;28;20046;-81
2023/04/18 10:54:21;;;;;;;6.18;2.40;;;11.20;98.80;;;;;;5006012;28;20045;-81
2023/04/18 10:57:01;;;;;;;4.22;2.17;;;11.20;97.70;;;;;;5005703;28;20555;-81
2023/04/18 10:59:28;;;;;;;7.25;3.03;;;11.20;97.40;;;;;;5041653;28;20507;-81
2023/04/18 11:01:56;;;;;;;3.30;1.95;;;11.30;97.70;;;;;;5054407;28;20083;-81
2023/04/18 11:04:23;;;;;;;6.93;3.00;;;11.30;98.30;;;;;;5009813;28;20034;-81
2023/04/18 11:06:53;;;;;;;4.97;2.15;;;11.40;97.30;;;;;;5004898;28;20042;-80
2023/04/18 11:09:19;;;;;;;5.93;2.90;;;11.40;97.60;;;;;;5038604;28;20037;-81
2023/04/18 11:11:45;;;;;;;6.22;3.25;;;11.50;97.00;;;;;;5012629;28;20049;-81
2023/04/18 11:14:10;;;;;;;6.13;3.28;;;11.50;97.30;;;;;;5007163;28;20042;-81
2023/04/18 11:16:36;;;;;;;5.63;3.05;;;11.50;97.20;;;;;;5004254;28;21300;-81
2023/04/18 11:19:22;;;;;;;4.95;2.70;;;11.50;97.50;;;;;;5041700;28;20041;-81
2023/04/18 11:21:48;;;;;;;5.65;3.38;;;11.50;96.60;;;;;;5006167;28;20034;-81
2023/04/18 11:24:23;;;;;;;6.22;3.35;;;11.60;96.00;;;;;;5037074;28;20483;-81
2023/04/18 11:26:49;;;;;;;4.55;2.38;;;11.60;95.60;;;;;;5033081;28;20041;-81
2023/04/18 11:29:17;;;;;;;8.73;3.33;;;11.50;97.00;;;;;;5037874;28;20041;-81
2023/04/18 11:31:52;;;;;;;5.68;3.38;;;11.60;97.20;;;;;;5030625;28;20138;-81
2023/04/18 11:34:17;;;;;;;9.52;3.60;;;11.60;96.90;;;;;;5017036;28;20451;-81
2023/04/18 11:36:48;;;;;;;6.75;3.30;;;11.60;96.80;;;;;;4999167;28;20034;-81
2023/04/18 11:39:13;;;;;;;7.93;3.47;;;11.70;96.50;;;;;;5003354;28;20057;-81
2023/04/18 11:41:40;;;;;;;6.93;3.30;;;11.70;96.70;;;;;;5036423;28;20399;-81
2023/04/18 11:44:06;;;;;;;5.63;3.15;;;11.80;97.10;;;;;;5009358;28;20121;-81
2023/04/18 11:46:38;;;;;;;9.55;3.75;;;11.70;97.40;;;;;;5006661;28;20140;-81
2023/04/18 11:49:04;;;;;;;8.45;3.53;;;11.80;94.80;;;;;;5001777;28;20116;-81
2023/04/18 11:51:35;;;;;;;7.47;3.40;;;11.80;96.30;;;;;;5031515;28;20129;-81
2023/04/18 11:54:01;;;;;;;6.53;3.50;;;11.80;96.00;;;;;;5033128;28;20094;-81
2023/04/18 11:56:27;;;;;;;7.07;4.00;;;11.80;96.10;;;;;;5001139;28;20046;-81
2023/04/18 11:58:53;;;;;;;5.07;2.67;;;11.80;96.50;;;;;;5007322;28;20495;-82
2023/04/18 12:01:20;;;;;;;5.65;3.53;;;11.90;95.60;;;;;;5007076;28;20037;-81
2023/04/18 12:04:06;;;;;;;7.07;3.40;;;12.00;95.10;;;;;;5002843;28;20109;-81
2023/04/18 12:06:47;;;;;;;7.40;3.63;;;11.90;94.10;;;;;;5004606;28;20087;-81
2023/04/18 12:09:17;;;;;;;8.85;3.58;;;12.00;94.60;;;;;;5052767;28;20049;-81
2023/04/18 12:11:42;;;;;;;7.15;3.85;;;12.00;95.80;;;;;;5005496;28;20058;-81
2023/04/18 12:14:19;;;;;;;7.25;3.50;;;12.00;95.60;;;;;;4999624;28;20054;-81
2023/04/18 12:16:48;;;;;;;6.55;3.05;;;12.00;95.00;;;;;;5035129;28;20418;-81
2023/04/18 12:19:14;;;;;;;7.53;3.58;;;12.00;94.80;;;;;;5009265;28;20430;-81
2023/04/18 12:22:05;;;;;;;8.57;3.53;;;12.00;95.10;;;;;;4999097;28;20034;-82
2023/04/18 12:24:31;;;;;;;7.20;3.28;;;12.10;90.60;;;;;;5000482;28;20869;-81
2023/04/18 12:27:00;;;;;;;9.40;3.92;;;12.10;94.30;;;;;;5000744;28;20149;-81
2023/04/18 12:29:28;;;;;;;9.82;4.65;;;12.10;94.60;;;;;;5021033;28;20052;-81
2023/04/18 12:31:54;;;;;;;5.68;3.40;;;12.10;94.70;;;;;;5030132;28;20045;-81
2023/04/18 12:34:20;;;;;;;6.50;3.47;;;12.10;94.60;;;;;;5035779;28;20172;-81
2023/04/18 12:36:45;;;;;;;9.15;4.03;;;12.10;94.00;;;;;;5004959;28;20125;-81
2023/04/18 12:39:12;;;;;;;7.63;3.55;;;12.20;94.50;;;;;;5008596;28;20034;-81
2023/04/18 12:41:37;;;;;;;10.82;4.22;;;12.10;94.70;;;;;;5034696;28;20513;-82
2023/04/18 12:44:04;;;;;;;7.38;3.30;;;12.20;94.70;;;;;;4998939;28;20046;-81
2023/04/18 12:46:30;;;;;;;9.38;3.88;;;12.30;94.00;;;;;;4998067;28;20046;-81
2023/04/18 12:48:56;;;;;;;6.70;3.22;;;12.30;93.10;;;;;;5000393;28;20547;-82
2023/04/18 12:51:22;;;;;;;7.78;3.38;;;12.40;93.80;;;;;;4996548;28;20037;-81
2023/04/18 12:53:48;;;;;;;5.15;2.90;;;12.40;93.80;;;;;;4988514;28;20100;-82